createdAt,value
2022-12-15T00:00:52.605Z,8.57
2022-12-15T00:03:20.018Z,8.37
2022-12-15T00:05:49.769Z,8.53
2022-12-15T00:08:17.670Z,9.53
2022-12-15T00:10:44.906Z,8.40
2022-12-15T00:13:12.711Z,8.77
2022-12-15T00:15:41.282Z,8.10
2022-12-15T00:18:08.566Z,9.33
2022-12-15T00:20:35.803Z,8.57
2022-12-15T00:23:07.767Z,9.47
2022-12-15T00:25:35.047Z,9.37
2022-12-15T00:28:02.337Z,10.23
2022-12-15T00:33:18.042Z,9.53
2022-12-15T00:35:45.482Z,8.30
2022-12-15T00:38:14.258Z,9.10
2022-12-15T00:40:41.543Z,8.43
2022-12-15T00:46:45.386Z,8.90
2022-12-15T00:49:14.111Z,8.50
2022-12-15T00:51:41.331Z,9.60
2022-12-15T00:54:13.215Z,8.60
2022-12-15T00:56:43.631Z,8.87
2022-12-15T00:59:11.188Z,9.70
2022-12-15T01:01:53.961Z,8.73
2022-12-15T01:04:22.889Z,9.67
2022-12-15T01:06:50.261Z,10.97
2022-12-15T01:09:17.640Z,9.67
2022-12-15T01:12:06.863Z,9.10
2022-12-15T01:17:45.493Z,9.03
2022-12-15T01:20:14.097Z,8.97
2022-12-15T01:22:41.740Z,9.37
2022-12-15T01:25:10.117Z,8.87
2022-12-15T01:27:37.350Z,9.70
2022-12-15T01:32:56.319Z,9.27
2022-12-15T01:35:25.025Z,8.77
2022-12-15T01:37:52.325Z,8.97
2022-12-15T01:43:18.708Z,8.73
2022-12-15T01:49:01.770Z,9.50
2022-12-15T01:51:37.244Z,8.23
2022-12-15T01:54:05.862Z,8.57
2022-12-15T01:56:37.580Z,8.80
2022-12-15T01:59:07.097Z,8.77
2022-12-15T02:01:34.797Z,9.20
2022-12-15T02:04:02.999Z,9.60
2022-12-15T02:06:36.973Z,9.47
2022-12-15T02:09:04.366Z,9.50
2022-12-15T02:11:46.504Z,10.53
2022-12-15T02:14:17.227Z,10.37
2022-12-15T02:20:41.337Z,10.10
2022-12-15T02:23:30.170Z,9.97
2022-12-15T02:26:12.577Z,10.27
2022-12-15T02:28:53.266Z,10.50
2022-12-15T02:31:23.744Z,9.47
2022-12-15T02:34:06.165Z,9.60
2022-12-15T02:36:48.087Z,10.17
2022-12-15T02:39:20.785Z,8.90
2022-12-15T02:41:48.690Z,8.93
2022-12-15T02:44:18.486Z,10.00
2022-12-15T02:47:10.141Z,8.80
2022-12-15T02:52:18.432Z,8.50
2022-12-15T02:55:02.254Z,9.30
2022-12-15T02:57:34.106Z,9.00
2022-12-15T03:00:02.572Z,8.90
2022-12-15T03:02:31.806Z,8.57
2022-12-15T03:11:45.891Z,9.23
2022-12-15T03:14:13.097Z,8.77
2022-12-15T03:16:40.396Z,8.70
2022-12-15T03:19:07.678Z,9.33
2022-12-15T03:21:34.972Z,8.97
2022-12-15T03:24:20.697Z,8.87
2022-12-15T03:26:49.358Z,8.07
2022-12-15T03:29:16.934Z,9.60
2022-12-15T03:31:44.346Z,9.70
2022-12-15T03:34:30.924Z,9.10
2022-12-15T03:40:45.747Z,8.87
2022-12-15T03:43:14.402Z,9.33
2022-12-15T03:45:41.702Z,8.60
2022-12-15T03:48:08.905Z,7.93
2022-12-15T03:50:36.148Z,8.60
2022-12-15T03:53:04.188Z,8.30
2022-12-15T03:55:36.936Z,8.00
2022-12-15T03:58:04.289Z,7.40
2022-12-15T04:00:32.838Z,7.70
2022-12-15T04:03:00.537Z,7.67
2022-12-15T04:09:18.665Z,7.10
2022-12-15T04:11:46.469Z,6.70
2022-12-15T04:14:13.829Z,7.00
2022-12-15T04:16:42.431Z,6.17
2022-12-15T04:19:09.683Z,7.00
2022-12-15T04:21:36.898Z,7.23
2022-12-15T04:24:09.857Z,6.20
2022-12-15T04:26:37.168Z,6.33
2022-12-15T04:29:04.375Z,6.67
2022-12-15T04:31:32.655Z,6.23
2022-12-15T04:34:20.756Z,6.57
2022-12-15T04:37:15.019Z,7.13
2022-12-15T04:39:54.748Z,5.47
2022-12-15T04:42:22.247Z,6.60
2022-12-15T04:44:50.468Z,6.47
2022-12-15T04:47:17.827Z,6.37
2022-12-15T04:49:45.054Z,6.40
2022-12-15T04:52:12.318Z,6.30
2022-12-15T04:54:45.765Z,4.93
2022-12-15T04:57:14.359Z,6.70
2022-12-15T04:59:41.599Z,6.63
2022-12-15T05:02:08.952Z,6.37
2022-12-15T05:04:55.386Z,6.40
2022-12-15T05:07:41.640Z,6.00
2022-12-15T05:10:14.684Z,6.07
2022-12-15T05:12:43.792Z,6.20
2022-12-15T05:15:11.044Z,5.97
2022-12-15T05:17:41.430Z,6.23
2022-12-15T05:20:09.646Z,5.63
2022-12-15T05:22:55.766Z,6.67
2022-12-15T05:25:23.035Z,6.10
2022-12-15T05:27:51.593Z,5.90
2022-12-15T05:30:18.842Z,6.37
2022-12-15T05:39:26.375Z,6.17
2022-12-15T05:41:53.921Z,4.83
2022-12-15T05:44:22.864Z,5.93
2022-12-15T05:46:50.410Z,5.97
2022-12-15T05:49:18.279Z,6.23
2022-12-15T05:52:04.309Z,6.33
2022-12-15T05:54:31.629Z,6.77
2022-12-15T05:56:58.876Z,5.77
2022-12-15T05:59:27.472Z,6.03
2022-12-15T06:05:26.468Z,5.43
2022-12-15T06:08:12.531Z,6.43
2022-12-15T06:10:39.823Z,6.47
2022-12-15T06:13:06.998Z,5.90
2022-12-15T06:15:35.591Z,5.77
2022-12-15T06:18:02.813Z,6.13
2022-12-15T06:20:30.054Z,5.73
2022-12-15T06:23:02.498Z,6.70
2022-12-15T06:25:29.834Z,5.90
2022-12-15T06:28:01.559Z,4.67
2022-12-15T06:30:29.214Z,6.70
2022-12-15T06:36:13.327Z,7.20
2022-12-15T06:38:40.869Z,6.50
2022-12-15T06:41:08.124Z,6.37
2022-12-15T06:43:35.453Z,6.40
2022-12-15T06:46:03.299Z,6.43
2022-12-15T06:48:31.984Z,5.80
2022-12-15T06:51:14.947Z,8.27
2022-12-15T06:53:44.704Z,6.20
2022-12-15T06:56:16.362Z,6.47
2022-12-15T06:58:43.577Z,6.00
2022-12-15T07:07:57.657Z,5.93
2022-12-15T07:10:25.008Z,5.23
2022-12-15T07:12:52.424Z,5.70
2022-12-15T07:15:19.681Z,6.10
2022-12-15T07:17:46.900Z,5.70
2022-12-15T07:20:14.225Z,5.67
2022-12-15T07:22:41.478Z,6.33
2022-12-15T07:25:10.414Z,6.23
2022-12-15T07:27:37.667Z,6.43
2022-12-15T07:30:05.313Z,7.37
2022-12-15T07:32:32.607Z,6.70
2022-12-15T07:34:59.835Z,5.83
2022-12-15T07:37:27.097Z,6.43
2022-12-15T07:39:54.296Z,6.20
2022-12-15T07:42:23.011Z,7.07
2022-12-15T07:44:50.930Z,2.67
2022-12-15T07:47:18.134Z,6.27
2022-12-15T07:49:45.343Z,3.80
2022-12-15T07:52:12.678Z,5.10
2022-12-15T07:54:39.873Z,6.30
2022-12-15T07:57:07.352Z,7.80
2022-12-15T07:59:36.106Z,6.53
2022-12-15T08:02:03.690Z,6.70
2022-12-15T08:04:31.088Z,7.17
2022-12-15T08:07:03.735Z,6.07
2022-12-15T08:09:31.018Z,5.57
2022-12-15T08:11:58.241Z,6.50
2022-12-15T08:14:25.776Z,6.60
2022-12-15T08:20:37.707Z,5.73
2022-12-15T08:23:04.969Z,9.43
2022-12-15T08:25:32.235Z,8.27
2022-12-15T08:27:59.460Z,6.97
2022-12-15T08:30:27.940Z,6.20
2022-12-15T08:32:55.160Z,7.67
2022-12-15T08:35:54.739Z,7.03
2022-12-15T08:38:10.974Z,5.93
2022-12-15T08:40:43.599Z,5.27
2022-12-15T08:43:20.270Z,5.27
2022-12-15T08:45:47.705Z,5.40
2022-12-15T08:48:17.661Z,4.73
2022-12-15T08:50:50.240Z,5.67
2022-12-15T08:53:46.931Z,5.03
2022-12-15T08:56:24.582Z,5.30
2022-12-15T08:58:57.077Z,5.40
2022-12-15T09:01:25.229Z,4.63
2022-12-15T09:03:53.558Z,5.43
2022-12-15T09:06:22.190Z,5.20
2022-12-15T09:08:50.578Z,4.67
2022-12-15T09:11:25.512Z,5.10
2022-12-15T09:13:53.060Z,5.43
2022-12-15T09:16:21.035Z,5.10
2022-12-15T09:18:49.165Z,5.03
2022-12-15T09:21:49.931Z,5.07
2022-12-15T09:24:37.016Z,5.00
2022-12-15T09:27:05.759Z,4.97
2022-12-15T09:29:33.242Z,4.70
2022-12-15T09:32:00.540Z,5.13
2022-12-15T09:34:27.804Z,5.03
2022-12-15T09:36:55.017Z,5.37
2022-12-15T09:39:41.605Z,4.27
2022-12-15T09:42:22.735Z,5.13
2022-12-15T09:44:51.172Z,4.40
2022-12-15T09:47:24.303Z,5.50
2022-12-15T09:53:54.529Z,5.63
2022-12-15T09:56:38.747Z,4.93
2022-12-15T09:59:13.667Z,5.20
2022-12-15T10:01:46.242Z,4.97
2022-12-15T10:04:16.147Z,5.37
2022-12-15T10:06:50.609Z,4.57
2022-12-15T10:09:31.538Z,5.47
2022-12-15T10:12:00.727Z,5.57
2022-12-15T10:14:31.362Z,5.30
2022-12-15T10:17:02.203Z,5.20
2022-12-15T10:19:50.502Z,5.53
2022-12-15T10:22:42.322Z,3.17
2022-12-15T10:25:30.132Z,5.50
2022-12-15T10:28:22.833Z,4.73
2022-12-15T10:30:56.989Z,4.67
2022-12-15T10:33:25.485Z,5.30
2022-12-15T10:35:53.802Z,5.10
2022-12-15T10:39:01.106Z,4.60
2022-12-15T10:41:32.369Z,5.60
2022-12-15T10:43:59.670Z,4.73
2022-12-15T10:46:29.316Z,5.47
2022-12-15T10:55:49.956Z,6.17
2022-12-15T10:58:18.663Z,6.23
2022-12-15T11:00:46.054Z,4.70
2022-12-15T11:03:23.586Z,5.20
2022-12-15T11:05:54.606Z,5.73
2022-12-15T11:11:07.679Z,6.40
2022-12-15T11:13:35.367Z,4.73
2022-12-15T11:16:11.478Z,4.53
2022-12-15T11:18:43.416Z,4.33
2022-12-15T11:21:12.950Z,5.20
2022-12-15T11:24:00.478Z,5.37
2022-12-15T11:30:10.080Z,5.57
2022-12-15T11:32:38.171Z,3.13
2022-12-15T11:35:12.427Z,4.00
2022-12-15T11:37:40.994Z,3.60
2022-12-15T11:40:20.184Z,3.70
2022-12-15T11:46:05.836Z,3.30
2022-12-15T11:48:36.493Z,3.57
2022-12-15T11:51:06.803Z,3.10
2022-12-15T11:53:53.140Z,3.60
2022-12-15T12:03:12.137Z,3.40
2022-12-15T12:05:52.508Z,3.03
2022-12-15T12:08:25.688Z,2.83
2022-12-15T12:10:58.777Z,2.40
2022-12-15T12:13:29.873Z,3.23
2022-12-15T12:16:02.160Z,3.03
2022-12-15T12:18:32.344Z,2.53
2022-12-15T12:21:03.331Z,3.03
2022-12-15T12:23:35.535Z,3.27
2022-12-15T12:26:06.025Z,2.47
2022-12-15T12:28:52.167Z,2.50
2022-12-15T12:31:44.337Z,2.67
2022-12-15T12:34:19.040Z,2.83
2022-12-15T12:36:48.975Z,2.50
2022-12-15T12:39:34.344Z,2.53
2022-12-15T12:42:06.525Z,2.53
2022-12-15T12:44:40.329Z,2.87
2022-12-15T12:47:11.229Z,3.30
2022-12-15T12:49:39.914Z,2.03
2022-12-15T12:52:14.438Z,2.30
2022-12-15T12:54:43.753Z,2.80
2022-12-15T13:00:22.876Z,2.93
2022-12-15T13:03:11.455Z,2.73
2022-12-15T13:05:39.530Z,2.90
2022-12-15T13:08:40.001Z,2.47
2022-12-15T13:11:24.947Z,2.97
2022-12-15T13:14:21.018Z,2.57
2022-12-15T13:20:25.978Z,3.30
2022-12-15T13:22:55.226Z,2.67
2022-12-15T13:25:34.879Z,2.67
2022-12-15T13:28:19.337Z,2.67
2022-12-15T13:31:06.606Z,2.50
2022-12-15T13:33:34.318Z,2.33
2022-12-15T13:36:01.933Z,2.63
2022-12-15T13:38:52.251Z,3.17
2022-12-15T13:41:22.855Z,2.60
2022-12-15T13:43:58.455Z,3.20
2022-12-15T13:46:27.163Z,3.00
2022-12-15T13:49:02.248Z,2.43
2022-12-15T13:51:32.380Z,2.60
2022-12-15T13:57:48.060Z,2.20
2022-12-15T14:00:18.050Z,2.20
2022-12-15T14:02:45.597Z,3.10
2022-12-15T14:05:14.484Z,2.73
2022-12-15T14:07:41.903Z,2.13
2022-12-15T14:10:20.017Z,2.60
2022-12-15T14:15:42.236Z,2.43
2022-12-15T14:18:21.932Z,1.90
2022-12-15T14:20:49.263Z,2.30
2022-12-15T14:23:38.682Z,2.20
2022-12-15T14:29:41.765Z,2.10
2022-12-15T14:32:10.986Z,2.17
2022-12-15T14:34:39.728Z,2.57
2022-12-15T14:37:08.462Z,2.73
2022-12-15T14:39:37.041Z,1.93
2022-12-15T14:42:05.182Z,2.73
2022-12-15T14:44:39.296Z,2.10
2022-12-15T14:47:07.692Z,2.33
2022-12-15T14:49:40.784Z,2.33
2022-12-15T14:52:14.262Z,2.40
2022-12-15T14:54:58.057Z,2.40
2022-12-15T14:57:29.183Z,2.53
2022-12-15T14:59:56.449Z,2.07
2022-12-15T15:02:25.992Z,2.30
2022-12-15T15:04:59.094Z,2.37
2022-12-15T15:07:27.029Z,2.17
2022-12-15T15:09:54.293Z,2.30
2022-12-15T15:12:40.157Z,2.30
2022-12-15T15:15:08.154Z,3.70
2022-12-15T15:17:36.803Z,2.77
2022-12-15T15:20:07.396Z,2.70
2022-12-15T15:25:50.506Z,3.00
2022-12-15T15:28:25.035Z,2.53
2022-12-15T15:30:56.202Z,2.83
2022-12-15T15:33:24.438Z,2.40
2022-12-15T15:35:54.255Z,2.80
2022-12-15T15:38:23.004Z,3.10
2022-12-15T15:40:54.354Z,3.77
2022-12-15T15:43:21.787Z,3.43
2022-12-15T15:45:49.859Z,3.57
2022-12-15T15:48:20.305Z,3.00
2022-12-15T15:50:47.574Z,3.03
2022-12-15T15:53:19.170Z,3.30
2022-12-15T15:55:46.972Z,3.53
2022-12-15T16:02:02.160Z,3.60
2022-12-15T16:04:29.719Z,3.63
2022-12-15T16:06:57.334Z,3.50
2022-12-15T16:09:28.458Z,3.17
2022-12-15T16:11:56.193Z,3.57
2022-12-15T16:14:23.484Z,3.50
2022-12-15T16:16:50.730Z,3.53
2022-12-15T16:19:17.938Z,3.93
2022-12-15T16:21:45.262Z,3.33
2022-12-15T16:24:16.064Z,4.30
2022-12-15T16:26:47.896Z,5.47
2022-12-15T16:29:16.363Z,4.37
2022-12-15T16:31:43.780Z,4.03
2022-12-15T16:34:10.973Z,3.73
2022-12-15T16:36:38.387Z,3.83
2022-12-15T16:39:05.687Z,4.60
2022-12-15T16:41:33.552Z,4.73
2022-12-15T16:44:02.208Z,4.80
2022-12-15T16:46:29.486Z,4.00
2022-12-15T16:48:56.901Z,4.20
2022-12-15T16:51:27.559Z,4.30
2022-12-15T16:53:55.008Z,3.97
2022-12-15T16:56:22.369Z,3.97
2022-12-15T16:58:57.559Z,4.27
2022-12-15T17:01:40.265Z,4.00
2022-12-15T17:04:10.687Z,4.40
2022-12-15T17:06:38.171Z,3.83
2022-12-15T17:09:06.338Z,3.67
2022-12-15T17:11:34.086Z,4.13
2022-12-15T17:14:01.780Z,4.27
2022-12-15T17:16:29.644Z,4.13
2022-12-15T17:19:02.012Z,3.20
2022-12-15T17:21:30.365Z,3.97
2022-12-15T17:23:59.677Z,4.30
2022-12-15T17:26:29.870Z,4.23
2022-12-15T17:28:59.378Z,3.70
2022-12-15T17:31:31.517Z,4.40
2022-12-15T17:34:08.489Z,4.50
2022-12-15T17:36:35.785Z,3.07
2022-12-15T17:39:03.111Z,3.63
2022-12-15T17:41:58.889Z,4.47
2022-12-15T17:44:37.187Z,4.40
2022-12-15T17:47:20.614Z,4.13
2022-12-15T17:49:49.389Z,3.77
2022-12-15T17:52:22.138Z,3.70
2022-12-15T17:54:49.511Z,3.03
2022-12-15T18:03:47.386Z,2.73
2022-12-15T18:06:16.280Z,3.17
2022-12-15T18:08:43.824Z,3.00
2022-12-15T18:11:15.398Z,2.27
2022-12-15T18:13:42.796Z,3.17
2022-12-15T18:16:10.356Z,3.50
2022-12-15T18:18:37.693Z,2.67
2022-12-15T18:21:12.809Z,4.43
2022-12-15T18:23:41.500Z,3.60
2022-12-15T18:26:10.149Z,3.60
2022-12-15T18:28:37.393Z,2.90
2022-12-15T18:31:05.366Z,3.60
2022-12-15T18:33:32.882Z,3.47
2022-12-15T18:36:00.268Z,3.33
2022-12-15T18:38:27.938Z,3.07
2022-12-15T18:40:58.436Z,3.90
2022-12-15T18:43:27.297Z,3.80
2022-12-15T18:45:54.584Z,3.57
2022-12-15T18:48:22.907Z,4.23
2022-12-15T18:50:51.396Z,4.07
2022-12-15T18:53:20.003Z,4.13
2022-12-15T18:55:47.739Z,3.97
2022-12-15T18:58:20.414Z,3.50
2022-12-15T19:00:48.130Z,4.10
2022-12-15T19:03:15.888Z,4.33
2022-12-15T19:05:43.158Z,4.30
2022-12-15T19:08:13.150Z,4.57
2022-12-15T19:10:43.461Z,4.20
2022-12-15T19:13:13.035Z,4.07
2022-12-15T19:15:41.871Z,3.30
2022-12-15T19:18:12.042Z,4.10
2022-12-15T19:20:39.311Z,5.77
2022-12-15T19:23:07.431Z,5.50
2022-12-15T19:25:35.253Z,7.03
2022-12-15T19:28:02.663Z,5.40
2022-12-15T19:30:30.876Z,5.87
2022-12-15T19:33:01.213Z,5.97
2022-12-15T19:35:28.906Z,5.23
2022-12-15T19:37:56.442Z,5.73
2022-12-15T19:40:25.818Z,4.57
2022-12-15T19:42:53.076Z,7.37
2022-12-15T19:45:24.039Z,4.93
2022-12-15T19:47:51.431Z,3.63
2022-12-15T19:50:20.840Z,4.47
2022-12-15T19:52:49.355Z,4.53
2022-12-15T19:55:17.798Z,6.13
2022-12-15T19:57:45.247Z,4.70
2022-12-15T20:00:16.223Z,4.40
2022-12-15T20:02:43.647Z,4.03
2022-12-15T20:05:11.069Z,4.03
2022-12-15T20:07:39.697Z,3.83
2022-12-15T20:10:14.649Z,3.80
2022-12-15T20:12:46.600Z,3.40
2022-12-15T20:15:15.787Z,3.47
2022-12-15T20:17:43.135Z,4.33
2022-12-15T20:20:13.492Z,4.30
2022-12-15T20:22:42.197Z,3.77
2022-12-15T20:25:11.278Z,4.00
2022-12-15T20:27:38.528Z,4.10
2022-12-15T20:30:07.729Z,4.10
2022-12-15T20:32:38.317Z,4.90
2022-12-15T20:35:11.812Z,4.20
2022-12-15T20:37:42.291Z,3.43
2022-12-15T20:40:15.824Z,4.13
2022-12-15T20:42:43.264Z,3.47
2022-12-15T20:45:10.640Z,4.93
2022-12-15T20:47:40.473Z,3.93
2022-12-15T20:50:08.167Z,4.10
2022-12-15T20:52:35.488Z,4.07
2022-12-15T20:55:07.109Z,3.70
2022-12-15T20:57:34.317Z,3.57
2022-12-15T21:00:01.636Z,3.90
2022-12-15T21:02:30.214Z,4.23
2022-12-15T21:04:57.628Z,4.47
2022-12-15T21:07:24.861Z,4.47
2022-12-15T21:09:52.139Z,4.17
2022-12-15T21:12:22.461Z,4.40
2022-12-15T21:14:50.043Z,4.80
2022-12-15T21:17:18.265Z,4.37
2022-12-15T21:19:45.534Z,5.20
2022-12-15T21:22:16.644Z,5.83
2022-12-15T21:24:43.857Z,4.67
2022-12-15T21:27:17.240Z,7.53
2022-12-15T21:30:04.070Z,5.87
2022-12-15T21:32:34.382Z,5.90
2022-12-15T21:35:01.620Z,5.60
2022-12-15T21:37:30.044Z,5.13
2022-12-15T21:39:58.504Z,5.10
2022-12-15T21:42:26.132Z,5.60
2022-12-15T21:44:54.770Z,4.40
2022-12-15T21:47:26.047Z,4.77
2022-12-15T21:49:53.675Z,6.20
2022-12-15T21:52:23.021Z,5.83
2022-12-15T21:54:50.469Z,4.13
2022-12-15T21:57:19.114Z,3.90
2022-12-15T21:59:46.531Z,3.57
2022-12-15T22:02:27.701Z,4.07
2022-12-15T22:04:55.240Z,3.50
2022-12-15T22:07:22.704Z,3.87
2022-12-15T22:09:49.963Z,3.20
2022-12-15T22:12:20.057Z,2.67
2022-12-15T22:14:47.555Z,2.73
2022-12-15T22:17:17.580Z,2.67
2022-12-15T22:19:46.268Z,2.80
2022-12-15T22:22:13.665Z,3.27
2022-12-15T22:24:41.229Z,2.90
2022-12-15T22:27:14.645Z,3.77
2022-12-15T22:29:41.883Z,3.80
2022-12-15T22:36:05.656Z,3.80
2022-12-15T22:38:34.738Z,2.67
2022-12-15T22:41:02.501Z,2.67
2022-12-15T22:43:33.858Z,3.03
2022-12-15T22:46:01.463Z,2.60
2022-12-15T22:48:31.150Z,3.03
2022-12-15T22:50:58.642Z,2.40
2022-12-15T22:53:27.351Z,3.03
2022-12-15T22:55:56.079Z,2.80
2022-12-15T22:58:24.907Z,3.00
2022-12-15T23:00:53.098Z,2.80
2022-12-15T23:03:20.681Z,3.13
2022-12-15T23:05:48.039Z,2.83
2022-12-15T23:08:15.452Z,2.97
2022-12-15T23:10:42.704Z,2.93
2022-12-15T23:13:11.314Z,3.30
2022-12-15T23:15:38.710Z,2.37
2022-12-15T23:18:06.015Z,3.40
2022-12-15T23:20:33.821Z,2.73
2022-12-15T23:23:01.377Z,3.13
2022-12-15T23:25:28.638Z,2.40
2022-12-15T23:27:55.937Z,2.97
2022-12-15T23:30:24.890Z,2.60
2022-12-15T23:32:55.175Z,2.90
2022-12-15T23:35:29.725Z,2.43
2022-12-15T23:38:09.333Z,2.30
2022-12-15T23:40:52.696Z,3.10
2022-12-15T23:43:20.601Z,2.20
2022-12-15T23:45:55.719Z,2.47
2022-12-15T23:48:23.006Z,2.30
2022-12-15T23:50:50.246Z,2.93
2022-12-15T23:53:17.914Z,2.77
2022-12-15T23:55:57.232Z,2.80
2022-12-15T23:58:24.716Z,3.03
